createdAt,value
2018-08-03T00:03:50.306Z,99.90
2018-08-03T00:13:13.676Z,99.90
2018-08-03T00:17:53.677Z,99.90
2018-08-03T00:22:34.176Z,99.90
2018-08-03T00:27:14.267Z,99.90
2018-08-03T00:31:55.319Z,99.90
2018-08-03T00:36:36.226Z,99.90
2018-08-03T00:41:16.425Z,99.90
2018-08-03T00:45:57.964Z,99.90
2018-08-03T00:50:39.517Z,99.90
2018-08-03T00:55:20.427Z,99.90
2018-08-03T01:00:02.764Z,99.90
2018-08-03T01:04:43.714Z,99.90
2018-08-03T01:09:23.771Z,99.90
2018-08-03T01:14:04.880Z,99.90
2018-08-03T01:18:46.360Z,99.90
2018-08-03T01:23:26.338Z,99.90
2018-08-03T01:28:07.166Z,99.90
2018-08-03T01:32:48.287Z,99.90
2018-08-03T01:37:30.498Z,99.90
2018-08-03T01:42:11.555Z,99.90
2018-08-03T01:46:52.224Z,99.90
2018-08-03T01:51:32.467Z,99.90
2018-08-03T01:56:12.615Z,99.90
2018-08-03T02:00:54.356Z,99.90
2018-08-03T02:05:35.300Z,99.90
2018-08-03T02:10:15.653Z,99.90
2018-08-03T02:19:35.307Z,99.90
2018-08-03T02:24:16.522Z,99.90
2018-08-03T02:28:56.707Z,99.90
2018-08-03T02:33:37.475Z,99.90
2018-08-03T02:38:17.873Z,99.90
2018-08-03T02:42:57.939Z,99.90
2018-08-03T02:47:38.123Z,99.90
2018-08-03T02:52:18.360Z,99.90
2018-08-03T02:56:58.583Z,99.90
2018-08-03T03:01:39.392Z,99.90
2018-08-03T03:06:20.399Z,99.90
2018-08-03T03:11:00.499Z,99.90
2018-08-03T03:15:41.659Z,99.90
2018-08-03T03:20:22.296Z,99.90
2018-08-03T03:25:02.547Z,99.90
2018-08-03T03:29:43.419Z,99.90
2018-08-03T03:34:23.895Z,99.90
2018-08-03T03:39:08.165Z,99.90
2018-08-03T03:43:48.355Z,99.90
2018-08-03T03:48:29.164Z,99.90
2018-08-03T03:53:09.929Z,99.90
2018-08-03T03:57:50.168Z,99.90
2018-08-03T04:02:31.433Z,99.90
2018-08-03T04:07:13.027Z,99.90
2018-08-03T04:11:53.067Z,99.90
2018-08-03T04:16:33.687Z,99.90
2018-08-03T04:21:15.752Z,99.90
2018-08-03T04:25:57.708Z,99.90
2018-08-03T04:30:38.915Z,99.90
2018-08-03T04:35:19.386Z,99.90
2018-08-03T04:39:59.335Z,99.90
2018-08-03T04:44:40.367Z,99.90
2018-08-03T04:49:20.377Z,99.90
2018-08-03T04:54:00.638Z,99.90
2018-08-03T05:03:21.292Z,99.90
2018-08-03T05:08:01.830Z,99.90
2018-08-03T05:12:43.067Z,99.90
2018-08-03T05:17:23.182Z,99.90
2018-08-03T05:22:04.246Z,99.90
2018-08-03T05:26:44.245Z,99.90
2018-08-03T05:31:25.727Z,99.90
2018-08-03T05:36:06.706Z,99.90
2018-08-03T05:40:47.575Z,99.90
2018-08-03T05:45:28.863Z,99.90
2018-08-03T05:50:09.288Z,99.90
2018-08-03T05:54:50.175Z,99.90
2018-08-03T05:59:31.284Z,99.90
2018-08-03T06:04:12.083Z,99.90
2018-08-03T06:08:53.153Z,99.90
2018-08-03T06:13:34.331Z,99.90
2018-08-03T06:18:15.629Z,99.90
2018-08-03T06:22:56.520Z,99.90
2018-08-03T06:27:37.437Z,99.90
2018-08-03T06:32:17.454Z,99.90
2018-08-03T06:36:58.479Z,99.90
2018-08-03T06:41:38.730Z,99.90
2018-08-03T06:46:18.919Z,99.90
2018-08-03T06:50:59.120Z,99.90
2018-08-03T06:55:40.919Z,99.90
2018-08-03T07:00:21.682Z,99.90
2018-08-03T07:05:01.728Z,99.90
2018-08-03T07:09:42.180Z,99.90
2018-08-03T07:14:22.908Z,99.90
2018-08-03T07:19:03.725Z,99.90
2018-08-03T07:23:43.620Z,99.90
2018-08-03T07:28:24.705Z,99.80
2018-08-03T07:33:05.088Z,99.10
2018-08-03T07:37:45.192Z,98.60
2018-08-03T07:42:25.488Z,97.80
2018-08-03T07:47:05.371Z,96.70
2018-08-03T07:51:47.146Z,96.20
2018-08-03T07:56:28.768Z,95.90
2018-08-03T08:01:09.959Z,94.90
2018-08-03T08:05:50.180Z,94.10
2018-08-03T08:10:30.275Z,93.30
2018-08-03T08:15:10.578Z,92.30
2018-08-03T08:19:50.915Z,91.40
2018-08-03T08:24:32.436Z,90.20
2018-08-03T08:29:13.392Z,85.40
2018-08-03T08:33:54.084Z,79.10
2018-08-03T08:38:34.728Z,74.10
2018-08-03T08:47:57.246Z,64.00
2018-08-03T08:52:37.769Z,60.70
2018-08-03T08:57:18.600Z,57.50
2018-08-03T09:01:59.132Z,55.20
2018-08-03T09:06:40.203Z,54.00
2018-08-03T09:11:20.596Z,53.50
2018-08-03T09:16:01.325Z,52.30
2018-08-03T09:20:43.155Z,50.70
2018-08-03T09:25:24.350Z,49.30
2018-08-03T09:30:06.079Z,48.20
2018-08-03T09:34:46.647Z,47.00
2018-08-03T09:39:26.715Z,46.80
2018-08-03T09:44:07.394Z,46.70
2018-08-03T09:48:47.340Z,44.70
2018-08-03T09:53:27.792Z,45.90
2018-08-03T09:58:10.412Z,46.40
2018-08-03T10:02:50.706Z,46.40
2018-08-03T10:07:31.008Z,44.80
2018-08-03T10:12:10.957Z,46.00
2018-08-03T10:16:51.948Z,44.10
2018-08-03T10:21:32.543Z,44.00
2018-08-03T10:26:13.624Z,43.20
2018-08-03T10:30:54.822Z,43.50
2018-08-03T10:35:36.188Z,43.30
2018-08-03T10:40:16.336Z,42.90
2018-08-03T10:44:58.908Z,42.90
2018-08-03T10:49:39.572Z,42.20
2018-08-03T10:54:19.733Z,44.00
2018-08-03T10:59:00.740Z,44.10
2018-08-03T11:03:41.400Z,42.20
2018-08-03T11:08:22.027Z,41.50
2018-08-03T11:13:02.008Z,41.10
2018-08-03T11:17:42.443Z,41.60
2018-08-03T11:22:22.343Z,40.60
2018-08-03T11:27:04.346Z,38.60
2018-08-03T11:31:45.013Z,39.70
2018-08-03T11:36:25.898Z,39.90
2018-08-03T11:41:06.312Z,39.30
2018-08-03T11:50:26.935Z,39.00
2018-08-03T11:55:07.705Z,40.90
2018-08-03T11:59:47.751Z,39.50
2018-08-03T12:04:28.688Z,40.20
2018-08-03T12:09:09.668Z,40.60
2018-08-03T12:13:49.979Z,42.00
2018-08-03T12:18:31.743Z,42.70
2018-08-03T12:23:12.725Z,41.20
2018-08-03T12:27:54.239Z,40.10
2018-08-03T12:37:14.862Z,40.00
2018-08-03T12:41:56.651Z,37.90
2018-08-03T12:46:37.533Z,39.00
2018-08-03T12:51:18.099Z,38.70
2018-08-03T12:55:58.677Z,40.40
2018-08-03T13:05:20.400Z,38.80
2018-08-03T13:10:00.980Z,39.00
2018-08-03T13:14:40.999Z,39.30
2018-08-03T13:19:21.962Z,42.10
2018-08-03T13:24:02.819Z,45.20
2018-08-03T13:33:23.979Z,42.50
2018-08-03T13:38:05.088Z,40.40
2018-08-03T13:42:46.811Z,40.00
2018-08-03T13:47:27.144Z,41.50
2018-08-03T13:52:08.175Z,43.00
2018-08-03T13:56:48.795Z,44.40
2018-08-03T14:01:44.012Z,46.70
2018-08-03T14:06:24.752Z,48.10
2018-08-03T14:11:05.279Z,49.00
2018-08-03T14:15:45.388Z,47.80
2018-08-03T14:20:26.431Z,48.10
2018-08-03T14:25:07.340Z,47.10
2018-08-03T14:29:48.570Z,47.90
2018-08-03T14:34:29.128Z,48.50
2018-08-03T14:39:10.837Z,46.50
2018-08-03T14:43:52.331Z,46.20
2018-08-03T14:48:32.552Z,47.00
2018-08-03T14:53:13.382Z,46.20
2018-08-03T14:57:54.361Z,46.90
2018-08-03T15:02:34.651Z,47.10
2018-08-03T15:07:14.688Z,45.80
2018-08-03T15:11:54.752Z,45.40
2018-08-03T15:16:35.055Z,45.40
2018-08-03T15:21:15.205Z,45.30
2018-08-03T15:25:56.476Z,45.40
2018-08-03T15:30:36.764Z,44.90
2018-08-03T15:35:17.953Z,45.90
2018-08-03T15:39:59.199Z,46.00
2018-08-03T15:44:40.136Z,45.90
2018-08-03T15:49:22.044Z,46.10
2018-08-03T15:54:02.283Z,46.00
2018-08-03T15:58:43.110Z,45.50
2018-08-03T16:03:24.250Z,46.70
2018-08-03T16:08:04.500Z,47.70
2018-08-03T16:12:45.337Z,49.30
2018-08-03T16:17:26.287Z,50.00
2018-08-03T16:22:06.860Z,51.40
2018-08-03T16:26:47.932Z,54.00
2018-08-03T16:31:29.636Z,55.10
2018-08-03T16:36:09.920Z,56.20
2018-08-03T16:40:51.860Z,55.70
2018-08-03T16:45:32.831Z,55.30
2018-08-03T16:50:13.090Z,54.10
2018-08-03T16:54:54.304Z,54.70
2018-08-03T17:04:14.930Z,54.80
2018-08-03T17:08:55.009Z,53.10
2018-08-03T17:13:36.529Z,52.80
2018-08-03T17:18:18.219Z,54.00
2018-08-03T17:22:59.948Z,53.10
2018-08-03T17:27:40.809Z,53.10
2018-08-03T17:32:20.962Z,52.30
2018-08-03T17:37:01.168Z,50.90
2018-08-03T17:41:42.054Z,51.90
2018-08-03T17:46:22.495Z,53.80
2018-08-03T17:51:02.635Z,54.50
2018-08-03T17:55:44.254Z,55.50
2018-08-03T18:00:26.264Z,56.00
2018-08-03T18:05:06.384Z,58.90
2018-08-03T18:09:46.584Z,67.30
2018-08-03T18:14:27.823Z,72.00
2018-08-03T18:19:08.048Z,74.70
2018-08-03T18:23:48.212Z,77.40
2018-08-03T18:28:29.446Z,80.10
2018-08-03T18:33:10.547Z,82.20
2018-08-03T18:37:50.651Z,85.20
2018-08-03T18:42:32.316Z,87.60
2018-08-03T18:47:12.474Z,90.20
2018-08-03T18:51:54.024Z,91.60
2018-08-03T18:56:34.566Z,93.00
2018-08-03T19:01:15.207Z,94.50
2018-08-03T19:05:56.429Z,95.80
2018-08-03T19:10:37.772Z,96.90
2018-08-03T19:15:20.135Z,97.70
2018-08-03T19:24:40.709Z,98.80
2018-08-03T19:29:20.648Z,99.10
2018-08-03T19:34:00.931Z,99.40
2018-08-03T19:38:41.496Z,99.80
2018-08-03T19:43:22.283Z,99.90
2018-08-03T19:48:03.360Z,99.90
2018-08-03T19:52:43.298Z,99.90
2018-08-03T19:57:25.075Z,99.90
2018-08-03T20:02:07.261Z,99.90
2018-08-03T20:06:48.085Z,99.90
2018-08-03T20:11:29.402Z,99.90
2018-08-03T20:16:10.239Z,99.90
2018-08-03T20:20:50.566Z,99.90
2018-08-03T20:25:31.010Z,99.90
2018-08-03T20:30:12.093Z,99.90
2018-08-03T20:34:52.228Z,99.90
2018-08-03T20:39:33.712Z,99.90
2018-08-03T20:44:14.759Z,99.90
2018-08-03T20:48:56.676Z,99.90
2018-08-03T20:58:17.769Z,99.90
2018-08-03T21:02:59.785Z,99.90
2018-08-03T21:07:40.625Z,99.90
2018-08-03T21:12:21.824Z,99.90
2018-08-03T21:17:02.005Z,99.90
2018-08-03T21:21:42.662Z,99.90
2018-08-03T21:26:23.232Z,99.90
2018-08-03T21:31:04.440Z,99.90
2018-08-03T21:35:45.271Z,99.90
2018-08-03T21:40:25.855Z,99.90
2018-08-03T21:45:06.716Z,99.90
2018-08-03T21:49:47.402Z,99.90
2018-08-03T21:54:27.801Z,99.90
2018-08-03T21:59:09.318Z,99.90
2018-08-03T22:03:49.367Z,99.90
2018-08-03T22:08:30.605Z,99.90
2018-08-03T22:13:11.591Z,99.90
2018-08-03T22:17:52.459Z,99.90
2018-08-03T22:22:34.370Z,99.90
2018-08-03T22:27:14.927Z,99.90
2018-08-03T22:31:55.135Z,99.90
2018-08-03T22:36:36.275Z,99.90
2018-08-03T22:41:17.630Z,99.90
2018-08-03T22:45:59.367Z,99.90
2018-08-03T22:50:41.166Z,99.90
2018-08-03T22:55:21.858Z,99.90
2018-08-03T23:00:02.786Z,99.90
2018-08-03T23:04:43.574Z,99.90
2018-08-03T23:09:25.247Z,99.90
2018-08-03T23:14:05.494Z,99.90
2018-08-03T23:18:46.554Z,99.90
2018-08-03T23:23:26.647Z,99.90
2018-08-03T23:28:07.117Z,99.90
2018-08-03T23:32:49.332Z,99.90
2018-08-03T23:37:29.485Z,99.90
2018-08-03T23:46:50.327Z,99.90
2018-08-03T23:51:30.904Z,99.90
2018-08-03T23:56:10.935Z,99.90
